Terminal Aerodrome Forecast
Issued by NWS Sioux Falls, SD

Home | Current Version | Previous Version | Graphics & Text | Print | Product List | Glossary Off
Versions: 1 2 3 4 5 6 7 8 9 10 11 12 13 14 15 16 17 18 19 20 21 22 23 24 25 26 27

000
FTUS43 KFSD 251734
TAFSUX
TAF
KSUX 251734Z 2518/2618 32020G30KT P6SM BKN030
     FM252200 33020G28KT P6SM SCT035
     FM260100 33012KT P6SM SKC
     FM260800 34006KT P6SM SKC
     FM261600 34010KT P6SM SCT120=

USA.gov is the U.S. government's official web portal to all federal, state and local government web resources and services.